createdAt,value
2022-09-23T00:01:11.277Z,7.03
2022-09-23T00:03:41.994Z,7.09
2022-09-23T00:06:14.712Z,7.12
2022-09-23T00:08:41.507Z,7.01
2022-09-23T00:11:11.430Z,7.03
2022-09-23T00:13:39.571Z,7.04
2022-09-23T00:16:09.429Z,6.97
2022-09-23T00:18:36.478Z,6.87
2022-09-23T00:21:08.447Z,6.87
2022-09-23T00:23:35.299Z,6.94
2022-09-23T00:26:04.250Z,6.93
2022-09-23T00:28:31.548Z,6.83
2022-09-23T00:31:03.200Z,6.71
2022-09-23T00:33:30.121Z,6.79
2022-09-23T00:36:05.160Z,6.78
2022-09-23T00:38:32.115Z,6.66
2022-09-23T00:40:58.948Z,6.40
2022-09-23T00:43:55.066Z,6.49
2022-09-23T00:46:25.482Z,6.50
2022-09-23T00:49:03.400Z,6.34
2022-09-23T00:51:35.092Z,5.93
2022-09-23T00:54:02.670Z,5.70
2022-09-23T00:56:30.968Z,5.71
2022-09-23T00:58:57.893Z,5.94
2022-09-23T01:01:25.272Z,5.82
2022-09-23T01:03:52.786Z,6.00
2022-09-23T01:06:20.285Z,6.01
2022-09-23T01:08:47.331Z,6.11
2022-09-23T01:11:25.936Z,6.06
2022-09-23T01:14:02.293Z,5.74
2022-09-23T01:16:45.854Z,5.69
2022-09-23T01:19:33.690Z,5.58
2022-09-23T01:22:28.071Z,5.26
2022-09-23T01:25:32.349Z,5.21
2022-09-23T01:28:04.452Z,5.27
2022-09-23T01:31:12.809Z,5.18
2022-09-23T01:33:47.830Z,5.50
2022-09-23T01:36:23.732Z,5.66
2022-09-23T01:39:01.235Z,5.75
2022-09-23T01:41:36.991Z,5.82
2022-09-23T01:44:11.129Z,5.86
2022-09-23T01:47:01.131Z,5.83
2022-09-23T01:49:59.377Z,5.80
2022-09-23T01:52:35.661Z,5.92
2022-09-23T01:55:14.226Z,5.86
2022-09-23T01:57:43.884Z,5.72
2022-09-23T02:00:15.204Z,5.79
2022-09-23T02:03:07.135Z,5.72
2022-09-23T02:05:38.798Z,5.45
2022-09-23T02:08:17.655Z,5.28
2022-09-23T02:10:56.487Z,5.17
2022-09-23T02:13:29.940Z,5.28
2022-09-23T02:16:01.153Z,5.20
2022-09-23T02:18:54.048Z,5.21
2022-09-23T02:21:21.977Z,4.92
2022-09-23T02:23:56.652Z,4.88
2022-09-23T02:26:32.696Z,4.82
2022-09-23T02:29:22.562Z,4.97
2022-09-23T02:32:06.388Z,5.16
2022-09-23T02:34:58.403Z,5.15
2022-09-23T02:37:53.145Z,5.08
2022-09-23T02:40:33.760Z,5.11
2022-09-23T02:43:28.093Z,5.23
2022-09-23T02:45:56.199Z,5.32
2022-09-23T02:48:27.001Z,5.26
2022-09-23T02:50:54.473Z,5.15
2022-09-23T02:53:23.696Z,5.08
2022-09-23T02:55:51.087Z,4.95
2022-09-23T02:58:17.920Z,4.95
2022-09-23T03:01:23.499Z,4.95
2022-09-23T03:04:14.890Z,5.11
2022-09-23T03:06:51.009Z,5.13
2022-09-23T03:09:25.899Z,5.12
2022-09-23T03:12:17.150Z,5.07
2022-09-23T03:14:52.197Z,5.17
2022-09-23T03:17:27.498Z,5.12
2022-09-23T03:20:01.400Z,5.17
2022-09-23T03:22:33.762Z,5.31
2022-09-23T03:25:03.827Z,5.29
2022-09-23T03:27:31.788Z,5.08
2022-09-23T03:29:59.056Z,4.94
2022-09-23T03:32:27.987Z,4.95
2022-09-23T03:34:57.636Z,4.88
2022-09-23T03:37:41.973Z,4.75
2022-09-23T03:40:30.109Z,4.74
2022-09-23T03:42:57.579Z,4.60
2022-09-23T03:45:28.385Z,4.43
2022-09-23T03:47:55.289Z,4.46
2022-09-23T03:50:22.337Z,4.57
2022-09-23T03:52:50.562Z,4.45
2022-09-23T03:55:19.294Z,4.59
2022-09-23T03:57:46.308Z,4.57
2022-09-23T04:00:14.355Z,4.64
2022-09-23T04:02:41.814Z,4.86
2022-09-23T04:05:09.497Z,4.92
2022-09-23T04:07:36.499Z,4.94
2022-09-23T04:10:05.032Z,4.92
2022-09-23T04:12:33.201Z,5.02
2022-09-23T04:15:00.158Z,5.00
2022-09-23T04:17:26.963Z,4.97
2022-09-23T04:19:53.815Z,4.93
2022-09-23T04:22:23.622Z,4.96
2022-09-23T04:24:50.890Z,4.98
2022-09-23T04:27:17.671Z,4.97
2022-09-23T04:29:44.616Z,4.96
2022-09-23T04:32:11.684Z,4.95
2022-09-23T04:34:38.524Z,4.84
2022-09-23T04:37:05.382Z,4.92
2022-09-23T04:39:32.219Z,4.89
2022-09-23T04:41:59.650Z,4.82
2022-09-23T04:44:28.088Z,4.82
2022-09-23T04:46:55.009Z,4.77
2022-09-23T04:49:21.913Z,4.77
2022-09-23T04:51:48.985Z,4.79
2022-09-23T04:54:16.011Z,4.85
2022-09-23T04:56:42.951Z,4.87
2022-09-23T04:59:09.864Z,4.92
2022-09-23T05:01:37.961Z,4.93
2022-09-23T05:04:07.404Z,4.97
2022-09-23T05:06:36.901Z,5.00
2022-09-23T05:09:06.250Z,5.15
2022-09-23T05:11:33.704Z,5.21
2022-09-23T05:14:00.606Z,5.24
2022-09-23T05:16:27.493Z,5.37
2022-09-23T05:18:54.606Z,5.46
2022-09-23T05:21:23.217Z,5.52
2022-09-23T05:23:54.211Z,5.63
2022-09-23T05:26:25.590Z,5.97
2022-09-23T05:28:53.934Z,6.30
2022-09-23T05:31:22.678Z,6.70
2022-09-23T05:33:52.071Z,7.27
2022-09-23T05:36:21.285Z,7.70
2022-09-23T05:38:50.046Z,8.10
2022-09-23T05:41:19.061Z,8.13
2022-09-23T05:43:45.907Z,8.59
2022-09-23T05:46:14.160Z,8.74
2022-09-23T05:48:42.102Z,8.77
2022-09-23T05:51:12.832Z,8.56
2022-09-23T05:53:40.554Z,8.81
2022-09-23T05:56:08.048Z,9.14
2022-09-23T05:58:34.906Z,9.24
2022-09-23T06:01:01.842Z,9.32
2022-09-23T06:03:28.727Z,9.30
2022-09-23T06:05:56.075Z,9.39
2022-09-23T06:08:23.741Z,9.45
2022-09-23T06:10:54.433Z,9.48
2022-09-23T06:13:21.615Z,9.69
2022-09-23T06:15:48.467Z,9.85
2022-09-23T06:18:15.349Z,9.96
2022-09-23T06:20:42.209Z,10.04
2022-09-23T06:23:11.021Z,10.22
2022-09-23T06:25:41.529Z,10.22
2022-09-23T06:28:12.187Z,10.48
2022-09-23T06:30:42.536Z,10.54
2022-09-23T06:33:10.141Z,10.49
2022-09-23T06:35:37.154Z,10.74
2022-09-23T06:38:04.927Z,10.92
2022-09-23T06:40:31.906Z,10.90
2022-09-23T06:43:00.625Z,11.20
2022-09-23T06:45:28.060Z,11.39
2022-09-23T06:47:56.622Z,11.61
2022-09-23T06:50:27.487Z,11.70
2022-09-23T06:52:56.317Z,11.49
2022-09-23T06:55:24.610Z,11.53
2022-09-23T06:57:51.470Z,11.41
2022-09-23T07:00:18.653Z,11.62
2022-09-23T07:02:45.731Z,11.79
2022-09-23T07:05:12.943Z,12.20
2022-09-23T07:07:39.780Z,12.48
2022-09-23T07:10:07.286Z,12.69
2022-09-23T07:12:34.072Z,12.89
2022-09-23T07:15:00.861Z,13.16
2022-09-23T07:17:28.010Z,12.67
2022-09-23T07:19:58.528Z,13.26
2022-09-23T07:22:26.522Z,12.86
2022-09-23T07:24:57.164Z,12.96
2022-09-23T07:27:25.372Z,12.71
2022-09-23T07:29:52.430Z,13.56
2022-09-23T07:32:20.360Z,13.63
2022-09-23T07:34:47.619Z,13.67
2022-09-23T07:37:16.545Z,13.36
2022-09-23T07:39:44.391Z,13.83
2022-09-23T07:42:12.448Z,14.26
2022-09-23T07:44:39.593Z,14.31
2022-09-23T07:47:06.459Z,14.53
2022-09-23T07:49:35.561Z,14.01
2022-09-23T07:52:02.941Z,14.53
2022-09-23T07:54:30.021Z,14.91
2022-09-23T07:56:57.245Z,15.20
2022-09-23T07:59:27.036Z,15.48
2022-09-23T08:01:55.097Z,15.64
2022-09-23T08:04:23.806Z,15.39
2022-09-23T08:07:01.898Z,14.54
2022-09-23T08:09:31.981Z,14.83
2022-09-23T08:11:59.091Z,15.52
2022-09-23T08:14:26.035Z,14.97
2022-09-23T08:16:53.700Z,15.43
2022-09-23T08:19:20.481Z,15.61
2022-09-23T08:21:47.587Z,15.74
2022-09-23T08:24:18.960Z,16.10
2022-09-23T08:26:46.664Z,16.52
2022-09-23T08:29:15.108Z,16.49
2022-09-23T08:31:42.006Z,16.80
2022-09-23T08:34:09.161Z,16.65
2022-09-23T08:36:36.461Z,16.79
2022-09-23T08:39:04.137Z,16.21
2022-09-23T08:41:43.622Z,16.93
2022-09-23T08:44:39.000Z,17.28
2022-09-23T08:47:10.559Z,17.51
2022-09-23T08:49:41.419Z,17.59
2022-09-23T08:52:34.558Z,17.52
2022-09-23T08:55:03.252Z,17.73
2022-09-23T08:58:24.919Z,17.75
2022-09-23T09:01:16.252Z,17.83
2022-09-23T09:03:47.864Z,17.85
2022-09-23T09:06:22.504Z,17.67
2022-09-23T09:08:57.033Z,17.66
2022-09-23T09:11:31.368Z,18.00
2022-09-23T09:14:18.264Z,18.14
2022-09-23T09:17:07.918Z,17.74
2022-09-23T09:20:13.334Z,18.10
2022-09-23T09:22:53.023Z,18.46
2022-09-23T09:25:33.463Z,18.10
2022-09-23T09:28:01.488Z,18.50
2022-09-23T09:30:28.506Z,18.72
2022-09-23T09:33:01.777Z,19.04
2022-09-23T09:35:36.775Z,18.95
2022-09-23T09:38:05.685Z,18.49
2022-09-23T09:40:34.610Z,18.84
2022-09-23T09:43:05.838Z,18.50
2022-09-23T09:45:57.689Z,18.41
2022-09-23T09:49:05.796Z,18.17
2022-09-23T09:51:32.714Z,18.68
2022-09-23T09:54:27.351Z,18.57
2022-09-23T09:56:54.735Z,18.71
2022-09-23T09:59:26.463Z,18.75
2022-09-23T10:02:34.273Z,19.05
2022-09-23T10:05:03.962Z,18.83
2022-09-23T10:07:32.740Z,18.64
2022-09-23T10:10:31.734Z,18.74
2022-09-23T10:13:14.641Z,18.33
2022-09-23T10:15:45.038Z,18.19
2022-09-23T10:18:31.956Z,17.91
2022-09-23T10:21:23.121Z,17.74
2022-09-23T10:23:58.169Z,17.27
2022-09-23T10:26:42.415Z,17.41
2022-09-23T10:29:37.252Z,16.97
2022-09-23T10:32:18.968Z,17.28
2022-09-23T10:34:48.983Z,17.14
2022-09-23T10:37:20.547Z,17.20
2022-09-23T10:40:05.991Z,16.83
2022-09-23T10:43:16.911Z,16.88
2022-09-23T10:46:07.381Z,17.63
2022-09-23T10:48:59.152Z,17.30
2022-09-23T10:51:39.988Z,17.63
2022-09-23T10:54:18.270Z,18.11
2022-09-23T10:57:02.447Z,18.08
2022-09-23T10:59:47.624Z,18.13
2022-09-23T11:02:20.354Z,18.02
2022-09-23T11:04:55.947Z,18.23
2022-09-23T11:07:33.818Z,18.35
2022-09-23T11:10:45.438Z,17.93
2022-09-23T11:13:23.289Z,17.96
2022-09-23T11:15:58.786Z,17.27
2022-09-23T11:18:26.776Z,17.59
2022-09-23T11:21:02.458Z,17.37
2022-09-23T11:23:38.534Z,17.51
2022-09-23T11:26:32.260Z,17.72
2022-09-23T11:29:20.143Z,17.09
2022-09-23T11:32:04.350Z,17.05
2022-09-23T11:34:43.209Z,17.12
2022-09-23T11:37:14.052Z,17.12
2022-09-23T11:39:59.813Z,17.23
2022-09-23T11:42:30.134Z,16.80
2022-09-23T11:45:06.939Z,16.83
2022-09-23T11:47:58.963Z,17.12
2022-09-23T11:50:32.346Z,17.12
2022-09-23T11:53:31.395Z,17.02
2022-09-23T11:56:06.257Z,16.62
2022-09-23T11:58:56.487Z,16.64
2022-09-23T12:01:37.072Z,16.40
2022-09-23T12:04:22.724Z,16.44
2022-09-23T12:07:10.358Z,16.33
2022-09-23T12:09:58.384Z,16.38
2022-09-23T12:12:54.825Z,16.48
2022-09-23T12:15:37.301Z,16.29
2022-09-23T12:18:42.169Z,16.25
2022-09-23T12:21:39.096Z,16.09
2022-09-23T12:24:45.670Z,16.12
2022-09-23T12:27:36.983Z,16.05
2022-09-23T12:30:15.660Z,15.83
2022-09-23T12:32:43.122Z,15.99
2022-09-23T12:35:45.585Z,15.99
2022-09-23T12:38:14.618Z,16.20
2022-09-23T12:40:44.533Z,16.15
2022-09-23T12:43:30.650Z,16.17
2022-09-23T12:46:19.800Z,16.20
2022-09-23T12:48:57.360Z,16.37
2022-09-23T12:51:28.371Z,16.26
2022-09-23T12:53:57.899Z,16.30
2022-09-23T12:56:27.758Z,16.25
2022-09-23T12:59:16.522Z,16.27
2022-09-23T13:01:43.793Z,16.02
2022-09-23T13:05:02.394Z,15.99
2022-09-23T13:07:33.915Z,16.11
2022-09-23T13:10:16.227Z,16.28
2022-09-23T13:12:43.582Z,16.03
2022-09-23T13:15:36.679Z,16.09
2022-09-23T13:18:18.707Z,16.12
2022-09-23T13:20:46.998Z,16.16
2022-09-23T13:23:27.403Z,16.20
2022-09-23T13:25:56.553Z,16.32
2022-09-23T13:28:33.778Z,16.30
2022-09-23T13:31:06.428Z,16.21
2022-09-23T13:33:42.700Z,16.20
2022-09-23T13:36:19.691Z,16.21
2022-09-23T13:38:47.139Z,16.29
2022-09-23T13:41:20.176Z,16.11
2022-09-23T13:43:58.766Z,16.29
2022-09-23T13:46:28.407Z,16.29
2022-09-23T13:48:56.075Z,16.26
2022-09-23T13:51:43.226Z,16.30
2022-09-23T13:54:33.430Z,16.24
2022-09-23T13:57:00.464Z,16.17
2022-09-23T13:59:36.203Z,16.06
2022-09-23T14:02:14.290Z,16.20
2022-09-23T14:04:41.317Z,16.29
2022-09-23T14:07:09.917Z,16.39
2022-09-23T14:09:37.123Z,16.43
2022-09-23T14:12:06.115Z,16.21
2022-09-23T14:14:35.384Z,16.27
2022-09-23T14:17:02.609Z,16.25
2022-09-23T14:19:29.577Z,16.29
2022-09-23T14:21:56.898Z,16.40
2022-09-23T14:24:32.342Z,16.40
2022-09-23T14:27:29.910Z,16.37
2022-09-23T14:29:57.445Z,16.34
2022-09-23T14:32:27.547Z,16.36
2022-09-23T14:35:00.420Z,16.41
2022-09-23T14:37:47.116Z,16.37
2022-09-23T14:40:25.021Z,16.41
2022-09-23T14:42:57.445Z,16.28
2022-09-23T14:45:25.999Z,16.43
2022-09-23T14:47:58.486Z,16.47
2022-09-23T14:50:37.120Z,16.42
2022-09-23T14:53:04.592Z,16.44
2022-09-23T14:55:31.540Z,16.45
2022-09-23T14:58:05.495Z,16.50
2022-09-23T15:00:32.378Z,16.59
2022-09-23T15:03:04.170Z,16.47
2022-09-23T15:05:47.788Z,16.64
2022-09-23T15:08:22.994Z,16.64
2022-09-23T15:10:50.580Z,16.74
2022-09-23T15:13:33.117Z,16.73
2022-09-23T15:16:01.855Z,16.76
2022-09-23T15:18:34.087Z,16.73
2022-09-23T15:21:02.674Z,16.77
2022-09-23T15:23:47.539Z,16.75
2022-09-23T15:26:14.370Z,16.68
2022-09-23T15:28:42.488Z,16.60
2022-09-23T15:31:13.568Z,16.54
2022-09-23T15:33:40.658Z,16.51
2022-09-23T15:36:16.402Z,16.43
2022-09-23T15:38:44.181Z,16.33
2022-09-23T15:41:11.177Z,16.28
2022-09-23T15:43:40.656Z,16.21
2022-09-23T15:46:12.692Z,16.19
2022-09-23T15:48:43.678Z,16.17
2022-09-23T15:51:13.794Z,16.11
2022-09-23T15:53:40.786Z,16.02
2022-09-23T15:56:07.734Z,15.91
2022-09-23T15:58:34.710Z,15.88
2022-09-23T16:01:01.853Z,15.80
2022-09-23T16:03:29.048Z,15.74
2022-09-23T16:06:02.279Z,15.65
2022-09-23T16:08:29.787Z,15.54
2022-09-23T16:10:56.686Z,15.42
2022-09-23T16:13:23.635Z,15.29
2022-09-23T16:15:50.641Z,15.16
2022-09-23T16:18:17.566Z,15.06
2022-09-23T16:20:45.737Z,14.96
2022-09-23T16:23:35.055Z,14.82
2022-09-23T16:26:08.270Z,14.72
2022-09-23T16:28:35.164Z,14.54
2022-09-23T16:31:02.186Z,14.43
2022-09-23T16:33:29.196Z,14.31
2022-09-23T16:35:56.146Z,14.16
2022-09-23T16:38:22.992Z,14.04
2022-09-23T16:40:50.300Z,13.96
2022-09-23T16:43:17.495Z,13.84
2022-09-23T16:45:45.764Z,13.71
2022-09-23T16:48:12.734Z,13.56
2022-09-23T16:50:40.346Z,13.47
2022-09-23T16:53:07.171Z,13.32
2022-09-23T16:55:33.914Z,13.22
2022-09-23T16:58:00.930Z,13.11
2022-09-23T17:00:46.382Z,12.99
2022-09-23T17:03:31.896Z,12.85
2022-09-23T17:06:00.688Z,12.68
2022-09-23T17:08:30.137Z,12.62
2022-09-23T17:10:58.606Z,12.55
2022-09-23T17:13:26.865Z,12.40
2022-09-23T17:15:54.260Z,12.34
2022-09-23T17:18:21.564Z,12.27
2022-09-23T17:21:02.089Z,12.17
2022-09-23T17:23:31.393Z,12.12
2022-09-23T17:25:59.508Z,12.05
2022-09-23T17:28:26.638Z,11.87
2022-09-23T17:31:03.959Z,11.78
2022-09-23T17:33:32.035Z,11.72
2022-09-23T17:36:00.039Z,11.67
2022-09-23T17:38:29.288Z,11.58
2022-09-23T17:40:59.084Z,11.40
2022-09-23T17:43:26.028Z,11.45
2022-09-23T17:45:55.418Z,11.28
2022-09-23T17:48:24.585Z,11.05
2022-09-23T17:51:02.173Z,10.65
2022-09-23T17:53:35.561Z,10.64
2022-09-23T17:56:07.456Z,10.66
2022-09-23T17:58:37.758Z,10.73
2022-09-23T18:01:08.663Z,10.65
2022-09-23T18:03:35.533Z,10.69
2022-09-23T18:06:12.518Z,10.68
2022-09-23T18:08:40.752Z,10.67
2022-09-23T18:11:15.600Z,10.60
2022-09-23T18:13:46.872Z,10.58
2022-09-23T18:16:13.801Z,10.51
2022-09-23T18:18:40.696Z,10.45
2022-09-23T18:21:07.767Z,10.43
2022-09-23T18:23:36.573Z,10.39
2022-09-23T18:26:04.261Z,10.34
2022-09-23T18:28:34.605Z,10.25
2022-09-23T18:31:01.868Z,10.14
2022-09-23T18:33:28.687Z,10.19
2022-09-23T18:35:55.587Z,10.16
2022-09-23T18:38:22.848Z,10.07
2022-09-23T18:40:56.281Z,9.98
2022-09-23T18:43:38.966Z,9.96
2022-09-23T18:46:13.406Z,9.89
2022-09-23T18:48:59.299Z,9.79
2022-09-23T18:51:29.005Z,9.83
2022-09-23T18:53:58.454Z,9.79
2022-09-23T18:56:27.907Z,9.71
2022-09-23T18:58:55.696Z,9.57
2022-09-23T19:01:23.527Z,9.57
2022-09-23T19:03:57.117Z,9.35
2022-09-23T19:06:24.478Z,9.45
2022-09-23T19:08:52.793Z,9.43
2022-09-23T19:11:20.211Z,9.26
2022-09-23T19:13:47.033Z,9.30
2022-09-23T19:16:15.765Z,9.29
2022-09-23T19:18:46.388Z,9.14
2022-09-23T19:21:14.479Z,9.07
2022-09-23T19:23:47.509Z,8.99
2022-09-23T19:26:16.425Z,8.99
2022-09-23T19:28:49.053Z,9.00
2022-09-23T19:31:23.013Z,8.95
2022-09-23T19:33:56.778Z,8.81
2022-09-23T19:36:28.398Z,8.78
2022-09-23T19:38:58.574Z,8.79
2022-09-23T19:41:28.265Z,8.68
2022-09-23T19:43:58.621Z,8.70
2022-09-23T19:46:25.658Z,8.64
2022-09-23T19:48:52.470Z,8.59
2022-09-23T19:51:19.397Z,8.56
2022-09-23T19:53:46.396Z,8.47
2022-09-23T19:56:17.816Z,8.41
2022-09-23T19:58:51.534Z,8.35
2022-09-23T20:01:18.895Z,8.35
2022-09-23T20:03:47.065Z,8.36
2022-09-23T20:06:15.014Z,8.38
2022-09-23T20:08:41.940Z,8.36
2022-09-23T20:11:27.585Z,8.31
2022-09-23T20:14:00.924Z,8.18
2022-09-23T20:16:29.494Z,8.18
2022-09-23T20:18:56.608Z,8.14
2022-09-23T20:21:23.415Z,8.12
2022-09-23T20:23:50.206Z,8.02
2022-09-23T20:26:35.650Z,8.04
2022-09-23T20:29:02.629Z,7.97
2022-09-23T20:31:29.517Z,7.79
2022-09-23T20:33:58.267Z,7.75
2022-09-23T20:36:29.393Z,7.58
2022-09-23T20:39:01.268Z,7.65
2022-09-23T20:41:30.109Z,7.53
2022-09-23T20:43:59.472Z,7.51
2022-09-23T20:46:27.190Z,7.44
2022-09-23T20:48:57.042Z,7.39
2022-09-23T20:51:24.822Z,7.34
2022-09-23T20:53:53.168Z,7.41
2022-09-23T20:56:21.489Z,7.47
2022-09-23T20:58:50.372Z,7.43
2022-09-23T21:01:17.616Z,7.48
2022-09-23T21:03:46.549Z,7.51
2022-09-23T21:06:16.050Z,7.54
2022-09-23T21:08:44.421Z,7.55
2022-09-23T21:11:13.340Z,7.54
2022-09-23T21:13:40.172Z,7.50
2022-09-23T21:16:10.377Z,7.48
2022-09-23T21:18:38.984Z,7.46
2022-09-23T21:21:06.488Z,7.44
2022-09-23T21:23:35.277Z,7.46
2022-09-23T21:26:14.556Z,7.44
2022-09-23T21:28:46.211Z,7.41
2022-09-23T21:31:25.785Z,7.34
2022-09-23T21:33:53.012Z,7.29
2022-09-23T21:36:20.409Z,7.30
2022-09-23T21:38:47.297Z,7.27
2022-09-23T21:41:14.129Z,7.23
2022-09-23T21:43:41.480Z,7.13
2022-09-23T21:46:13.485Z,7.02
2022-09-23T21:48:41.891Z,6.89
2022-09-23T21:51:11.864Z,6.99
2022-09-23T21:53:39.621Z,6.93
2022-09-23T21:56:09.227Z,6.89
2022-09-23T21:58:37.389Z,6.78
2022-09-23T22:01:18.811Z,6.65
2022-09-23T22:03:50.655Z,6.56
2022-09-23T22:06:21.434Z,6.43
2022-09-23T22:08:59.018Z,6.61
2022-09-23T22:11:47.381Z,6.63
2022-09-23T22:14:14.896Z,6.63
2022-09-23T22:16:42.113Z,6.53
2022-09-23T22:19:10.215Z,6.54
2022-09-23T22:21:38.768Z,6.54
2022-09-23T22:24:07.804Z,6.56
2022-09-23T22:26:35.581Z,6.48
2022-09-23T22:29:21.025Z,6.58
2022-09-23T22:32:06.321Z,6.49
2022-09-23T22:34:49.183Z,6.37
2022-09-23T22:37:28.164Z,6.42
2022-09-23T22:39:55.403Z,6.43
2022-09-23T22:42:22.549Z,6.45
2022-09-23T22:44:50.355Z,6.39
2022-09-23T22:47:18.094Z,6.40
2022-09-23T22:49:46.123Z,6.43
2022-09-23T22:52:14.906Z,6.36
2022-09-23T22:54:41.906Z,6.36
2022-09-23T22:57:09.140Z,6.30
2022-09-23T22:59:37.241Z,6.28
2022-09-23T23:02:05.133Z,6.16
2022-09-23T23:04:32.137Z,6.12
2022-09-23T23:06:59.124Z,6.14
2022-09-23T23:09:26.364Z,6.14
2022-09-23T23:11:53.189Z,6.12
2022-09-23T23:14:20.111Z,6.09
2022-09-23T23:16:47.325Z,6.07
2022-09-23T23:19:17.145Z,6.04
2022-09-23T23:21:45.211Z,5.96
2022-09-23T23:24:17.684Z,5.94
2022-09-23T23:26:45.008Z,5.80
2022-09-23T23:29:13.346Z,5.83
2022-09-23T23:31:40.596Z,5.78
2022-09-23T23:34:10.562Z,5.69
2022-09-23T23:36:37.733Z,5.61
2022-09-23T23:39:05.844Z,5.59
2022-09-23T23:41:32.695Z,5.59
2022-09-23T23:44:00.568Z,5.60
2022-09-23T23:46:28.955Z,5.61
2022-09-23T23:48:56.774Z,5.60
2022-09-23T23:51:27.871Z,5.56
2022-09-23T23:53:55.230Z,5.49
2022-09-23T23:56:26.033Z,5.49
2022-09-23T23:59:05.029Z,5.50
